sensor_id;sensor_type;location;lat;lon;timestamp;P1;durP1;ratioP1;P2;durP2;ratioP2
56511;SDS011;42408;53.238;5.686;2024-01-06T00:01:10;12.53;;;10.37;;
56511;SDS011;42408;53.238;5.686;2024-01-06T00:03:37;15.63;;;11.45;;
56511;SDS011;42408;53.238;5.686;2024-01-06T00:06:03;15.43;;;11.03;;
56511;SDS011;42408;53.238;5.686;2024-01-06T00:08:28;14.90;;;11.03;;
56511;SDS011;42408;53.238;5.686;2024-01-06T00:10:54;20.27;;;12.07;;
56511;SDS011;42408;53.238;5.686;2024-01-06T00:13:20;17.77;;;11.27;;
56511;SDS011;42408;53.238;5.686;2024-01-06T00:15:45;17.40;;;10.53;;
56511;SDS011;42408;53.238;5.686;2024-01-06T00:18:11;21.43;;;10.77;;
56511;SDS011;42408;53.238;5.686;2024-01-06T00:20:37;15.80;;;11.73;;
56511;SDS011;42408;53.238;5.686;2024-01-06T00:23:03;15.97;;;11.07;;
56511;SDS011;42408;53.238;5.686;2024-01-06T00:25:28;17.23;;;10.97;;
56511;SDS011;42408;53.238;5.686;2024-01-06T00:27:54;17.87;;;11.73;;
56511;SDS011;42408;53.238;5.686;2024-01-06T00:30:20;20.27;;;12.23;;
56511;SDS011;42408;53.238;5.686;2024-01-06T00:32:45;16.13;;;11.50;;
56511;SDS011;42408;53.238;5.686;2024-01-06T00:35:11;15.33;;;11.20;;
56511;SDS011;42408;53.238;5.686;2024-01-06T00:37:36;18.57;;;12.30;;
56511;SDS011;42408;53.238;5.686;2024-01-06T00:40:02;20.00;;;11.83;;
56511;SDS011;42408;53.238;5.686;2024-01-06T00:42:29;17.40;;;12.48;;
56511;SDS011;42408;53.238;5.686;2024-01-06T00:44:55;19.60;;;11.67;;
56511;SDS011;42408;53.238;5.686;2024-01-06T00:47:20;16.33;;;11.77;;
56511;SDS011;42408;53.238;5.686;2024-01-06T00:49:49;15.05;;;11.18;;
56511;SDS011;42408;53.238;5.686;2024-01-06T00:52:14;16.60;;;11.37;;
56511;SDS011;42408;53.238;5.686;2024-01-06T00:54:40;16.83;;;10.90;;
56511;SDS011;42408;53.238;5.686;2024-01-06T00:57:05;16.40;;;11.30;;
56511;SDS011;42408;53.238;5.686;2024-01-06T00:59:31;18.63;;;12.07;;
56511;SDS011;42408;53.238;5.686;2024-01-06T01:01:57;15.93;;;11.77;;
56511;SDS011;42408;53.238;5.686;2024-01-06T01:04:22;17.47;;;11.50;;
56511;SDS011;42408;53.238;5.686;2024-01-06T01:06:48;20.73;;;12.47;;
56511;SDS011;42408;53.238;5.686;2024-01-06T01:09:14;18.17;;;12.23;;
56511;SDS011;42408;53.238;5.686;2024-01-06T01:11:39;23.93;;;12.50;;
56511;SDS011;42408;53.238;5.686;2024-01-06T01:14:06;18.63;;;11.88;;
56511;SDS011;42408;53.238;5.686;2024-01-06T01:16:31;20.00;;;12.40;;
56511;SDS011;42408;53.238;5.686;2024-01-06T01:18:57;21.67;;;13.57;;
56511;SDS011;42408;53.238;5.686;2024-01-06T01:21:23;17.05;;;11.23;;
56511;SDS011;42408;53.238;5.686;2024-01-06T01:23:49;17.27;;;11.88;;
56511;SDS011;42408;53.238;5.686;2024-01-06T01:26:15;18.83;;;11.17;;
56511;SDS011;42408;53.238;5.686;2024-01-06T01:28:40;16.87;;;10.97;;
56511;SDS011;42408;53.238;5.686;2024-01-06T01:31:06;20.30;;;12.00;;
56511;SDS011;42408;53.238;5.686;2024-01-06T01:33:32;17.03;;;11.03;;
56511;SDS011;42408;53.238;5.686;2024-01-06T01:35:57;17.43;;;11.77;;
56511;SDS011;42408;53.238;5.686;2024-01-06T01:38:23;18.97;;;10.97;;
56511;SDS011;42408;53.238;5.686;2024-01-06T01:40:48;16.07;;;11.23;;
56511;SDS011;42408;53.238;5.686;2024-01-06T01:43:18;16.77;;;11.00;;
56511;SDS011;42408;53.238;5.686;2024-01-06T01:45:43;19.27;;;12.02;;
56511;SDS011;42408;53.238;5.686;2024-01-06T01:48:13;16.38;;;11.07;;
56511;SDS011;42408;53.238;5.686;2024-01-06T01:50:39;22.90;;;12.82;;
56511;SDS011;42408;53.238;5.686;2024-01-06T01:53:05;17.98;;;10.52;;
56511;SDS011;42408;53.238;5.686;2024-01-06T01:55:31;20.30;;;12.47;;
56511;SDS011;42408;53.238;5.686;2024-01-06T01:57:56;16.97;;;11.03;;
56511;SDS011;42408;53.238;5.686;2024-01-06T02:00:22;16.70;;;10.97;;
56511;SDS011;42408;53.238;5.686;2024-01-06T02:02:48;17.87;;;10.80;;
56511;SDS011;42408;53.238;5.686;2024-01-06T02:05:14;19.00;;;12.07;;
56511;SDS011;42408;53.238;5.686;2024-01-06T02:07:39;17.13;;;11.40;;
56511;SDS011;42408;53.238;5.686;2024-01-06T02:10:05;17.30;;;11.50;;
56511;SDS011;42408;53.238;5.686;2024-01-06T02:12:31;19.88;;;12.85;;
56511;SDS011;42408;53.238;5.686;2024-01-06T02:14:57;19.53;;;12.20;;
56511;SDS011;42408;53.238;5.686;2024-01-06T02:17:23;21.57;;;14.53;;
56511;SDS011;42408;53.238;5.686;2024-01-06T02:19:51;18.00;;;11.50;;
56511;SDS011;42408;53.238;5.686;2024-01-06T02:22:16;18.20;;;11.57;;
56511;SDS011;42408;53.238;5.686;2024-01-06T02:24:42;16.77;;;11.20;;
56511;SDS011;42408;53.238;5.686;2024-01-06T02:27:07;18.57;;;12.70;;
56511;SDS011;42408;53.238;5.686;2024-01-06T02:29:33;17.60;;;11.60;;
56511;SDS011;42408;53.238;5.686;2024-01-06T02:31:59;17.60;;;11.93;;
56511;SDS011;42408;53.238;5.686;2024-01-06T02:34:24;18.80;;;11.53;;
56511;SDS011;42408;53.238;5.686;2024-01-06T02:36:50;14.80;;;10.47;;
56511;SDS011;42408;53.238;5.686;2024-01-06T02:39:15;13.27;;;10.00;;
56511;SDS011;42408;53.238;5.686;2024-01-06T02:41:41;15.60;;;9.90;;
56511;SDS011;42408;53.238;5.686;2024-01-06T02:44:07;15.37;;;10.33;;
56511;SDS011;42408;53.238;5.686;2024-01-06T02:46:33;17.83;;;10.57;;
56511;SDS011;42408;53.238;5.686;2024-01-06T02:48:59;14.70;;;9.70;;
56511;SDS011;42408;53.238;5.686;2024-01-06T02:51:25;13.93;;;8.60;;
56511;SDS011;42408;53.238;5.686;2024-01-06T02:53:50;14.23;;;9.27;;
56511;SDS011;42408;53.238;5.686;2024-01-06T02:56:16;12.13;;;9.50;;
56511;SDS011;42408;53.238;5.686;2024-01-06T02:58:41;9.90;;;7.80;;
56511;SDS011;42408;53.238;5.686;2024-01-06T03:01:07;12.93;;;8.93;;
56511;SDS011;42408;53.238;5.686;2024-01-06T03:03:33;15.07;;;8.43;;
56511;SDS011;42408;53.238;5.686;2024-01-06T03:05:58;12.03;;;7.93;;
56511;SDS011;42408;53.238;5.686;2024-01-06T03:08:25;14.55;;;9.15;;
56511;SDS011;42408;53.238;5.686;2024-01-06T03:10:50;13.23;;;8.70;;
56511;SDS011;42408;53.238;5.686;2024-01-06T03:13:16;13.70;;;8.30;;
56511;SDS011;42408;53.238;5.686;2024-01-06T03:15:41;10.93;;;6.83;;
56511;SDS011;42408;53.238;5.686;2024-01-06T03:18:07;12.50;;;7.23;;
56511;SDS011;42408;53.238;5.686;2024-01-06T03:20:33;13.63;;;8.15;;
56511;SDS011;42408;53.238;5.686;2024-01-06T03:22:59;12.73;;;9.07;;
56511;SDS011;42408;53.238;5.686;2024-01-06T03:25:24;14.17;;;9.17;;
56511;SDS011;42408;53.238;5.686;2024-01-06T03:27:50;14.47;;;8.50;;
56511;SDS011;42408;53.238;5.686;2024-01-06T03:30:16;14.23;;;9.83;;
56511;SDS011;42408;53.238;5.686;2024-01-06T03:32:41;15.13;;;9.30;;
56511;SDS011;42408;53.238;5.686;2024-01-06T03:35:07;12.50;;;9.07;;
56511;SDS011;42408;53.238;5.686;2024-01-06T03:37:33;10.50;;;8.20;;
56511;SDS011;42408;53.238;5.686;2024-01-06T03:39:58;12.60;;;9.10;;
56511;SDS011;42408;53.238;5.686;2024-01-06T03:42:24;13.80;;;9.93;;
56511;SDS011;42408;53.238;5.686;2024-01-06T03:44:49;12.60;;;10.43;;
56511;SDS011;42408;53.238;5.686;2024-01-06T03:47:15;13.20;;;10.33;;
56511;SDS011;42408;53.238;5.686;2024-01-06T03:49:41;12.30;;;9.43;;
56511;SDS011;42408;53.238;5.686;2024-01-06T03:52:07;18.10;;;11.43;;
56511;SDS011;42408;53.238;5.686;2024-01-06T03:54:32;13.57;;;10.67;;
56511;SDS011;42408;53.238;5.686;2024-01-06T03:56:58;16.52;;;11.25;;
56511;SDS011;42408;53.238;5.686;2024-01-06T03:59:24;13.33;;;11.80;;
56511;SDS011;42408;53.238;5.686;2024-01-06T04:01:49;16.27;;;10.57;;
56511;SDS011;42408;53.238;5.686;2024-01-06T04:04:15;18.67;;;11.77;;
56511;SDS011;42408;53.238;5.686;2024-01-06T04:06:41;14.77;;;11.40;;
56511;SDS011;42408;53.238;5.686;2024-01-06T04:09:06;15.07;;;11.47;;
56511;SDS011;42408;53.238;5.686;2024-01-06T04:11:32;16.97;;;11.50;;
56511;SDS011;42408;53.238;5.686;2024-01-06T04:13:57;15.57;;;11.17;;
56511;SDS011;42408;53.238;5.686;2024-01-06T04:16:23;15.40;;;11.30;;
56511;SDS011;42408;53.238;5.686;2024-01-06T04:18:52;13.13;;;11.13;;
56511;SDS011;42408;53.238;5.686;2024-01-06T04:21:17;13.63;;;10.60;;
56511;SDS011;42408;53.238;5.686;2024-01-06T04:23:43;14.90;;;10.57;;
56511;SDS011;42408;53.238;5.686;2024-01-06T04:26:09;13.70;;;9.90;;
56511;SDS011;42408;53.238;5.686;2024-01-06T04:28:35;14.25;;;9.43;;
56511;SDS011;42408;53.238;5.686;2024-01-06T04:31:00;12.33;;;10.17;;
56511;SDS011;42408;53.238;5.686;2024-01-06T04:33:26;13.57;;;9.20;;
56511;SDS011;42408;53.238;5.686;2024-01-06T04:35:52;11.87;;;8.90;;
56511;SDS011;42408;53.238;5.686;2024-01-06T04:38:18;16.40;;;9.52;;
56511;SDS011;42408;53.238;5.686;2024-01-06T04:40:43;12.77;;;8.70;;
56511;SDS011;42408;53.238;5.686;2024-01-06T04:43:09;12.67;;;8.57;;
56511;SDS011;42408;53.238;5.686;2024-01-06T04:45:35;14.43;;;9.03;;
56511;SDS011;42408;53.238;5.686;2024-01-06T04:48:02;11.95;;;7.43;;
56511;SDS011;42408;53.238;5.686;2024-01-06T04:50:28;10.93;;;7.88;;
56511;SDS011;42408;53.238;5.686;2024-01-06T04:52:54;12.77;;;7.80;;
56511;SDS011;42408;53.238;5.686;2024-01-06T04:55:20;14.87;;;9.33;;
56511;SDS011;42408;53.238;5.686;2024-01-06T04:57:45;12.83;;;8.20;;
56511;SDS011;42408;53.238;5.686;2024-01-06T05:00:11;12.43;;;8.67;;
56511;SDS011;42408;53.238;5.686;2024-01-06T05:02:37;10.98;;;8.32;;
56511;SDS011;42408;53.238;5.686;2024-01-06T05:05:03;16.70;;;10.00;;
56511;SDS011;42408;53.238;5.686;2024-01-06T05:07:29;13.40;;;10.40;;
56511;SDS011;42408;53.238;5.686;2024-01-06T05:09:54;17.00;;;11.13;;
56511;SDS011;42408;53.238;5.686;2024-01-06T05:12:21;15.68;;;11.60;;
56511;SDS011;42408;53.238;5.686;2024-01-06T05:14:46;16.57;;;11.10;;
56511;SDS011;42408;53.238;5.686;2024-01-06T05:17:12;17.03;;;11.07;;
56511;SDS011;42408;53.238;5.686;2024-01-06T05:19:37;18.10;;;11.27;;
56511;SDS011;42408;53.238;5.686;2024-01-06T05:22:03;18.73;;;10.43;;
56511;SDS011;42408;53.238;5.686;2024-01-06T05:24:29;15.20;;;10.77;;
56511;SDS011;42408;53.238;5.686;2024-01-06T05:26:54;18.63;;;10.67;;
56511;SDS011;42408;53.238;5.686;2024-01-06T05:29:20;16.47;;;10.70;;
56511;SDS011;42408;53.238;5.686;2024-01-06T05:31:47;16.00;;;10.73;;
56511;SDS011;42408;53.238;5.686;2024-01-06T05:34:14;17.95;;;11.57;;
56511;SDS011;42408;53.238;5.686;2024-01-06T05:36:40;20.83;;;11.50;;
56511;SDS011;42408;53.238;5.686;2024-01-06T05:39:05;23.60;;;12.10;;
56511;SDS011;42408;53.238;5.686;2024-01-06T05:41:37;22.27;;;12.30;;
56511;SDS011;42408;53.238;5.686;2024-01-06T05:44:06;18.25;;;11.57;;
56511;SDS011;42408;53.238;5.686;2024-01-06T05:46:33;17.67;;;11.45;;
56511;SDS011;42408;53.238;5.686;2024-01-06T05:51:25;19.23;;;11.35;;
56511;SDS011;42408;53.238;5.686;2024-01-06T05:53:50;17.87;;;11.33;;
56511;SDS011;42408;53.238;5.686;2024-01-06T05:56:24;17.63;;;10.33;;
56511;SDS011;42408;53.238;5.686;2024-01-06T05:58:51;18.90;;;12.52;;
56511;SDS011;42408;53.238;5.686;2024-01-06T06:01:20;15.85;;;10.98;;
56511;SDS011;42408;53.238;5.686;2024-01-06T06:03:46;17.63;;;11.88;;
56511;SDS011;42408;53.238;5.686;2024-01-06T06:06:12;15.32;;;11.23;;
56511;SDS011;42408;53.238;5.686;2024-01-06T06:08:40;18.20;;;11.40;;
56511;SDS011;42408;53.238;5.686;2024-01-06T06:11:07;21.70;;;12.77;;
56511;SDS011;42408;53.238;5.686;2024-01-06T06:13:39;17.88;;;11.52;;
56511;SDS011;42408;53.238;5.686;2024-01-06T06:16:06;16.92;;;11.85;;
56511;SDS011;42408;53.238;5.686;2024-01-06T06:18:34;16.08;;;11.10;;
56511;SDS011;42408;53.238;5.686;2024-01-06T06:21:00;18.70;;;11.88;;
56511;SDS011;42408;53.238;5.686;2024-01-06T06:23:27;19.77;;;11.40;;
56511;SDS011;42408;53.238;5.686;2024-01-06T06:25:53;18.88;;;12.05;;
56511;SDS011;42408;53.238;5.686;2024-01-06T06:28:19;16.30;;;11.27;;
56511;SDS011;42408;53.238;5.686;2024-01-06T06:30:45;18.27;;;11.53;;
56511;SDS011;42408;53.238;5.686;2024-01-06T06:33:10;18.73;;;11.50;;
56511;SDS011;42408;53.238;5.686;2024-01-06T06:35:36;21.23;;;12.07;;
56511;SDS011;42408;53.238;5.686;2024-01-06T06:38:02;19.77;;;11.50;;
56511;SDS011;42408;53.238;5.686;2024-01-06T06:40:27;16.43;;;11.93;;
56511;SDS011;42408;53.238;5.686;2024-01-06T06:42:54;18.25;;;11.88;;
56511;SDS011;42408;53.238;5.686;2024-01-06T06:45:19;23.87;;;11.63;;
56511;SDS011;42408;53.238;5.686;2024-01-06T06:47:47;14.75;;;10.80;;
56511;SDS011;42408;53.238;5.686;2024-01-06T06:50:15;20.67;;;11.38;;
56511;SDS011;42408;53.238;5.686;2024-01-06T06:52:41;15.57;;;10.02;;
56511;SDS011;42408;53.238;5.686;2024-01-06T06:55:07;16.90;;;10.60;;
56511;SDS011;42408;53.238;5.686;2024-01-06T06:57:33;16.33;;;10.77;;
56511;SDS011;42408;53.238;5.686;2024-01-06T06:59:59;13.73;;;10.40;;
56511;SDS011;42408;53.238;5.686;2024-01-06T07:02:25;13.50;;;9.30;;
56511;SDS011;42408;53.238;5.686;2024-01-06T07:04:51;12.23;;;9.40;;
56511;SDS011;42408;53.238;5.686;2024-01-06T07:07:16;13.20;;;9.47;;
56511;SDS011;42408;53.238;5.686;2024-01-06T07:09:42;19.73;;;10.13;;
56511;SDS011;42408;53.238;5.686;2024-01-06T07:12:08;14.57;;;10.57;;
56511;SDS011;42408;53.238;5.686;2024-01-06T07:14:33;12.83;;;9.13;;
56511;SDS011;42408;53.238;5.686;2024-01-06T07:16:59;13.40;;;9.57;;
56511;SDS011;42408;53.238;5.686;2024-01-06T07:19:24;11.60;;;8.57;;
56511;SDS011;42408;53.238;5.686;2024-01-06T07:21:50;12.57;;;8.87;;
56511;SDS011;42408;53.238;5.686;2024-01-06T07:24:16;16.27;;;9.77;;
56511;SDS011;42408;53.238;5.686;2024-01-06T07:26:41;15.07;;;9.70;;
56511;SDS011;42408;53.238;5.686;2024-01-06T07:29:07;13.13;;;9.87;;
56511;SDS011;42408;53.238;5.686;2024-01-06T07:31:33;14.32;;;9.52;;
56511;SDS011;42408;53.238;5.686;2024-01-06T07:33:59;15.55;;;10.40;;
56511;SDS011;42408;53.238;5.686;2024-01-06T07:36:25;11.87;;;9.23;;
56511;SDS011;42408;53.238;5.686;2024-01-06T07:38:50;14.53;;;9.40;;
56511;SDS011;42408;53.238;5.686;2024-01-06T07:41:17;13.82;;;9.45;;
56511;SDS011;42408;53.238;5.686;2024-01-06T07:43:43;15.57;;;10.02;;
56511;SDS011;42408;53.238;5.686;2024-01-06T07:46:08;15.00;;;10.83;;
56511;SDS011;42408;53.238;5.686;2024-01-06T07:48:34;14.87;;;10.87;;
56511;SDS011;42408;53.238;5.686;2024-01-06T07:51:01;13.45;;;9.80;;
56511;SDS011;42408;53.238;5.686;2024-01-06T07:53:28;13.73;;;10.18;;
56511;SDS011;42408;53.238;5.686;2024-01-06T07:55:54;14.20;;;9.23;;
56511;SDS011;42408;53.238;5.686;2024-01-06T07:58:19;14.13;;;9.70;;
56511;SDS011;42408;53.238;5.686;2024-01-06T08:03:12;13.35;;;9.93;;
56511;SDS011;42408;53.238;5.686;2024-01-06T08:05:38;12.60;;;9.50;;
56511;SDS011;42408;53.238;5.686;2024-01-06T08:08:04;15.57;;;9.77;;
56511;SDS011;42408;53.238;5.686;2024-01-06T08:10:30;15.40;;;9.98;;
56511;SDS011;42408;53.238;5.686;2024-01-06T08:12:56;16.50;;;10.50;;
56511;SDS011;42408;53.238;5.686;2024-01-06T08:15:22;14.63;;;10.07;;
56511;SDS011;42408;53.238;5.686;2024-01-06T08:17:47;14.37;;;9.37;;
56511;SDS011;42408;53.238;5.686;2024-01-06T08:20:13;16.03;;;10.17;;
56511;SDS011;42408;53.238;5.686;2024-01-06T08:22:39;13.10;;;10.60;;
56511;SDS011;42408;53.238;5.686;2024-01-06T08:25:04;13.40;;;10.07;;
56511;SDS011;42408;53.238;5.686;2024-01-06T08:27:32;14.10;;;8.98;;
56511;SDS011;42408;53.238;5.686;2024-01-06T08:29:58;12.37;;;9.80;;
56511;SDS011;42408;53.238;5.686;2024-01-06T08:32:23;12.23;;;9.70;;
56511;SDS011;42408;53.238;5.686;2024-01-06T08:34:49;13.73;;;9.77;;
56511;SDS011;42408;53.238;5.686;2024-01-06T08:37:15;13.00;;;10.37;;
56511;SDS011;42408;53.238;5.686;2024-01-06T08:39:40;12.17;;;7.53;;
56511;SDS011;42408;53.238;5.686;2024-01-06T08:42:06;13.97;;;9.33;;
56511;SDS011;42408;53.238;5.686;2024-01-06T08:44:31;14.60;;;8.90;;
56511;SDS011;42408;53.238;5.686;2024-01-06T08:46:57;12.33;;;8.50;;
56511;SDS011;42408;53.238;5.686;2024-01-06T08:49:23;14.43;;;9.20;;
56511;SDS011;42408;53.238;5.686;2024-01-06T08:51:49;12.20;;;8.93;;
56511;SDS011;42408;53.238;5.686;2024-01-06T08:54:15;12.27;;;8.90;;
56511;SDS011;42408;53.238;5.686;2024-01-06T08:56:41;14.37;;;9.63;;
56511;SDS011;42408;53.238;5.686;2024-01-06T08:59:06;13.33;;;9.37;;
56511;SDS011;42408;53.238;5.686;2024-01-06T09:01:32;12.87;;;9.67;;
56511;SDS011;42408;53.238;5.686;2024-01-06T09:04:01;14.23;;;9.80;;
56511;SDS011;42408;53.238;5.686;2024-01-06T09:06:26;14.73;;;10.30;;
56511;SDS011;42408;53.238;5.686;2024-01-06T09:08:52;12.47;;;10.07;;
56511;SDS011;42408;53.238;5.686;2024-01-06T09:11:18;12.93;;;10.37;;
56511;SDS011;42408;53.238;5.686;2024-01-06T09:13:43;16.17;;;9.97;;
56511;SDS011;42408;53.238;5.686;2024-01-06T09:16:09;14.07;;;9.90;;
56511;SDS011;42408;53.238;5.686;2024-01-06T09:18:35;15.90;;;10.10;;
56511;SDS011;42408;53.238;5.686;2024-01-06T09:21:01;14.53;;;9.63;;
56511;SDS011;42408;53.238;5.686;2024-01-06T09:23:28;15.43;;;11.13;;
56511;SDS011;42408;53.238;5.686;2024-01-06T09:25:53;14.93;;;10.13;;
56511;SDS011;42408;53.238;5.686;2024-01-06T09:28:19;13.50;;;8.77;;
56511;SDS011;42408;53.238;5.686;2024-01-06T09:30:46;14.45;;;8.95;;
56511;SDS011;42408;53.238;5.686;2024-01-06T09:33:12;16.90;;;9.47;;
56511;SDS011;42408;53.238;5.686;2024-01-06T09:35:40;16.15;;;11.02;;
56511;SDS011;42408;53.238;5.686;2024-01-06T09:38:07;14.80;;;10.18;;
56511;SDS011;42408;53.238;5.686;2024-01-06T09:40:32;14.03;;;8.93;;
56511;SDS011;42408;53.238;5.686;2024-01-06T09:43:00;14.48;;;9.75;;
56511;SDS011;42408;53.238;5.686;2024-01-06T09:47:53;14.40;;;9.75;;
56511;SDS011;42408;53.238;5.686;2024-01-06T09:50:20;15.10;;;10.20;;
56511;SDS011;42408;53.238;5.686;2024-01-06T09:52:47;15.57;;;10.85;;
56511;SDS011;42408;53.238;5.686;2024-01-06T09:55:25;15.82;;;10.43;;
56511;SDS011;42408;53.238;5.686;2024-01-06T09:57:52;14.68;;;10.55;;
56511;SDS011;42408;53.238;5.686;2024-01-06T10:00:18;14.82;;;9.98;;
56511;SDS011;42408;53.238;5.686;2024-01-06T10:02:45;15.27;;;10.30;;
56511;SDS011;42408;53.238;5.686;2024-01-06T10:05:12;10.82;;;8.43;;
56511;SDS011;42408;53.238;5.686;2024-01-06T10:07:41;12.63;;;8.40;;
56511;SDS011;42408;53.238;5.686;2024-01-06T10:10:08;16.52;;;10.70;;
56511;SDS011;42408;53.238;5.686;2024-01-06T10:12:37;15.30;;;11.32;;
56511;SDS011;42408;53.238;5.686;2024-01-06T10:15:03;20.63;;;11.88;;
56511;SDS011;42408;53.238;5.686;2024-01-06T10:17:31;19.48;;;12.48;;
56511;SDS011;42408;53.238;5.686;2024-01-06T10:19:57;16.58;;;11.50;;
56511;SDS011;42408;53.238;5.686;2024-01-06T10:22:24;16.08;;;10.38;;
56511;SDS011;42408;53.238;5.686;2024-01-06T10:24:49;15.70;;;10.30;;
56511;SDS011;42408;53.238;5.686;2024-01-06T10:27:15;15.23;;;9.33;;
56511;SDS011;42408;53.238;5.686;2024-01-06T10:29:41;17.63;;;10.75;;
56511;SDS011;42408;53.238;5.686;2024-01-06T10:32:07;14.27;;;10.68;;
56511;SDS011;42408;53.238;5.686;2024-01-06T10:34:33;16.70;;;12.60;;
56511;SDS011;42408;53.238;5.686;2024-01-06T10:37:01;18.27;;;12.27;;
56511;SDS011;42408;53.238;5.686;2024-01-06T10:39:27;20.50;;;14.30;;
56511;SDS011;42408;53.238;5.686;2024-01-06T10:41:54;19.23;;;13.13;;
56511;SDS011;42408;53.238;5.686;2024-01-06T10:44:21;25.63;;;13.43;;
56511;SDS011;42408;53.238;5.686;2024-01-06T10:46:46;18.37;;;12.80;;
56511;SDS011;42408;53.238;5.686;2024-01-06T10:49:14;17.00;;;12.18;;
56511;SDS011;42408;53.238;5.686;2024-01-06T10:51:42;17.38;;;12.90;;
56511;SDS011;42408;53.238;5.686;2024-01-06T10:54:10;15.00;;;12.48;;
56511;SDS011;42408;53.238;5.686;2024-01-06T10:56:38;17.40;;;13.43;;
56511;SDS011;42408;53.238;5.686;2024-01-06T10:59:04;20.30;;;12.57;;
56511;SDS011;42408;53.238;5.686;2024-01-06T11:01:32;18.58;;;12.63;;
56511;SDS011;42408;53.238;5.686;2024-01-06T11:06:25;17.90;;;11.80;;
56511;SDS011;42408;53.238;5.686;2024-01-06T11:09:04;16.30;;;12.65;;
56511;SDS011;42408;53.238;5.686;2024-01-06T11:11:38;17.67;;;12.90;;
56511;SDS011;42408;53.238;5.686;2024-01-06T11:16:47;15.82;;;12.93;;
56511;SDS011;42408;53.238;5.686;2024-01-06T11:19:58;19.70;;;13.43;;
56511;SDS011;42408;53.238;5.686;2024-01-06T11:22:17;19.60;;;13.07;;
56511;SDS011;42408;53.238;5.686;2024-01-06T11:24:43;17.70;;;12.77;;
56511;SDS011;42408;53.238;5.686;2024-01-06T11:27:23;18.92;;;12.25;;
56511;SDS011;42408;53.238;5.686;2024-01-06T11:29:53;17.65;;;12.75;;
56511;SDS011;42408;53.238;5.686;2024-01-06T11:32:30;16.50;;;12.38;;
56511;SDS011;42408;53.238;5.686;2024-01-06T11:35:10;18.23;;;12.20;;
56511;SDS011;42408;53.238;5.686;2024-01-06T11:40:09;16.77;;;11.57;;
56511;SDS011;42408;53.238;5.686;2024-01-06T11:42:57;17.73;;;12.38;;
56511;SDS011;42408;53.238;5.686;2024-01-06T11:45:24;18.08;;;12.50;;
56511;SDS011;42408;53.238;5.686;2024-01-06T11:47:50;19.55;;;12.05;;
56511;SDS011;42408;53.238;5.686;2024-01-06T11:50:24;19.48;;;12.20;;
56511;SDS011;42408;53.238;5.686;2024-01-06T11:52:50;16.40;;;12.10;;
56511;SDS011;42408;53.238;5.686;2024-01-06T11:55:17;16.67;;;11.15;;
56511;SDS011;42408;53.238;5.686;2024-01-06T11:57:43;17.30;;;12.38;;
56511;SDS011;42408;53.238;5.686;2024-01-06T12:00:10;14.35;;;11.60;;
56511;SDS011;42408;53.238;5.686;2024-01-06T12:02:38;14.70;;;10.18;;
56511;SDS011;42408;53.238;5.686;2024-01-06T12:05:04;16.57;;;12.00;;
56511;SDS011;42408;53.238;5.686;2024-01-06T12:07:30;18.60;;;11.77;;
56511;SDS011;42408;53.238;5.686;2024-01-06T12:10:03;16.67;;;11.38;;
56511;SDS011;42408;53.238;5.686;2024-01-06T12:12:29;17.05;;;11.18;;
56511;SDS011;42408;53.238;5.686;2024-01-06T12:14:54;18.67;;;11.73;;
56511;SDS011;42408;53.238;5.686;2024-01-06T12:17:20;17.20;;;12.33;;
56511;SDS011;42408;53.238;5.686;2024-01-06T12:19:49;18.05;;;11.23;;
56511;SDS011;42408;53.238;5.686;2024-01-06T12:22:15;16.37;;;11.27;;
56511;SDS011;42408;53.238;5.686;2024-01-06T12:24:41;13.88;;;10.55;;
56511;SDS011;42408;53.238;5.686;2024-01-06T12:27:08;13.95;;;10.15;;
56511;SDS011;42408;53.238;5.686;2024-01-06T12:29:37;16.23;;;11.95;;
56511;SDS011;42408;53.238;5.686;2024-01-06T12:32:05;16.17;;;11.00;;
56511;SDS011;42408;53.238;5.686;2024-01-06T12:34:31;18.25;;;11.00;;
56511;SDS011;42408;53.238;5.686;2024-01-06T12:36:57;16.27;;;10.50;;
56511;SDS011;42408;53.238;5.686;2024-01-06T12:39:23;12.87;;;10.20;;
56511;SDS011;42408;53.238;5.686;2024-01-06T12:41:54;14.82;;;10.48;;
56511;SDS011;42408;53.238;5.686;2024-01-06T12:44:20;14.32;;;9.75;;
56511;SDS011;42408;53.238;5.686;2024-01-06T12:46:46;13.90;;;9.87;;
56511;SDS011;42408;53.238;5.686;2024-01-06T12:49:12;14.77;;;10.43;;
56511;SDS011;42408;53.238;5.686;2024-01-06T12:51:38;13.73;;;9.60;;
56511;SDS011;42408;53.238;5.686;2024-01-06T12:54:04;15.50;;;10.33;;
56511;SDS011;42408;53.238;5.686;2024-01-06T12:56:30;13.43;;;10.18;;
56511;SDS011;42408;53.238;5.686;2024-01-06T12:58:56;16.87;;;9.37;;
56511;SDS011;42408;53.238;5.686;2024-01-06T13:01:22;15.70;;;10.30;;
56511;SDS011;42408;53.238;5.686;2024-01-06T13:03:47;14.17;;;9.80;;
56511;SDS011;42408;53.238;5.686;2024-01-06T13:06:13;13.97;;;9.30;;
56511;SDS011;42408;53.238;5.686;2024-01-06T13:08:40;13.98;;;9.48;;
56511;SDS011;42408;53.238;5.686;2024-01-06T13:13:33;13.95;;;8.85;;
56511;SDS011;42408;53.238;5.686;2024-01-06T13:15:59;11.63;;;9.63;;
56511;SDS011;42408;53.238;5.686;2024-01-06T13:18:28;14.45;;;10.23;;
56511;SDS011;42408;53.238;5.686;2024-01-06T13:20:54;15.77;;;10.57;;
56511;SDS011;42408;53.238;5.686;2024-01-06T13:23:19;15.03;;;10.40;;
56511;SDS011;42408;53.238;5.686;2024-01-06T13:25:45;14.97;;;10.03;;
56511;SDS011;42408;53.238;5.686;2024-01-06T13:28:10;14.37;;;10.30;;
56511;SDS011;42408;53.238;5.686;2024-01-06T13:30:37;15.50;;;10.40;;
56511;SDS011;42408;53.238;5.686;2024-01-06T13:33:04;14.40;;;10.07;;
56511;SDS011;42408;53.238;5.686;2024-01-06T13:35:30;15.30;;;9.73;;
56511;SDS011;42408;53.238;5.686;2024-01-06T13:37:56;14.95;;;10.32;;
56511;SDS011;42408;53.238;5.686;2024-01-06T13:40:22;14.20;;;9.82;;
56511;SDS011;42408;53.238;5.686;2024-01-06T13:42:49;13.15;;;9.60;;
56511;SDS011;42408;53.238;5.686;2024-01-06T13:45:15;16.35;;;9.93;;
56511;SDS011;42408;53.238;5.686;2024-01-06T13:47:42;13.13;;;9.27;;
56511;SDS011;42408;53.238;5.686;2024-01-06T13:50:09;12.07;;;8.63;;
56511;SDS011;42408;53.238;5.686;2024-01-06T13:52:42;10.73;;;7.88;;
56511;SDS011;42408;53.238;5.686;2024-01-06T13:55:10;12.40;;;8.55;;
56511;SDS011;42408;53.238;5.686;2024-01-06T13:57:36;12.38;;;8.68;;
56511;SDS011;42408;53.238;5.686;2024-01-06T14:00:06;13.75;;;9.10;;
56511;SDS011;42408;53.238;5.686;2024-01-06T14:02:33;13.52;;;9.45;;
56511;SDS011;42408;53.238;5.686;2024-01-06T14:04:59;14.63;;;9.80;;
56511;SDS011;42408;53.238;5.686;2024-01-06T14:07:24;14.40;;;9.03;;
56511;SDS011;42408;53.238;5.686;2024-01-06T14:09:51;13.00;;;9.18;;
56511;SDS011;42408;53.238;5.686;2024-01-06T14:12:17;14.77;;;9.93;;
56511;SDS011;42408;53.238;5.686;2024-01-06T14:14:43;12.93;;;9.25;;
56511;SDS011;42408;53.238;5.686;2024-01-06T14:17:10;14.15;;;9.10;;
56511;SDS011;42408;53.238;5.686;2024-01-06T14:19:36;15.10;;;9.80;;
56511;SDS011;42408;53.238;5.686;2024-01-06T14:22:01;13.10;;;10.13;;
56511;SDS011;42408;53.238;5.686;2024-01-06T14:24:29;14.43;;;9.50;;
56511;SDS011;42408;53.238;5.686;2024-01-06T14:26:55;13.57;;;9.97;;
56511;SDS011;42408;53.238;5.686;2024-01-06T14:29:21;13.80;;;9.32;;
56511;SDS011;42408;53.238;5.686;2024-01-06T14:31:48;12.10;;;8.20;;
56511;SDS011;42408;53.238;5.686;2024-01-06T14:34:14;10.88;;;7.68;;
56511;SDS011;42408;53.238;5.686;2024-01-06T14:36:39;11.97;;;7.57;;
56511;SDS011;42408;53.238;5.686;2024-01-06T14:39:13;14.48;;;8.52;;